sensor_id;sensor_type;location;lat;lon;timestamp;pressure;altitude;pressure_sealevel;temperature;humidity
19761;BME280;10039;42.632;23.408;2023-02-26T00:00:13;93862.00;;;14.82;44.01
19761;BME280;10039;42.632;23.408;2023-02-26T00:02:43;93841.66;;;14.76;43.39
19761;BME280;10039;42.632;23.408;2023-02-26T00:05:10;93845.53;;;14.75;44.09
19761;BME280;10039;42.632;23.408;2023-02-26T00:07:37;93854.69;;;14.83;43.66
19761;BME280;10039;42.632;23.408;2023-02-26T00:10:04;93838.69;;;14.74;44.01
19761;BME280;10039;42.632;23.408;2023-02-26T00:12:30;93846.09;;;14.79;43.70
19761;BME280;10039;42.632;23.408;2023-02-26T00:14:56;93836.44;;;14.72;44.06
19761;BME280;10039;42.632;23.408;2023-02-26T00:19:50;93854.25;;;14.70;44.66
19761;BME280;10039;42.632;23.408;2023-02-26T00:22:16;93850.16;;;14.74;44.35
19761;BME280;10039;42.632;23.408;2023-02-26T00:24:41;93802.66;;;14.37;44.62
19761;BME280;10039;42.632;23.408;2023-02-26T00:27:09;93810.09;;;14.42;45.37
19761;BME280;10039;42.632;23.408;2023-02-26T00:29:35;93832.28;;;14.43;44.90
19761;BME280;10039;42.632;23.408;2023-02-26T00:32:01;93835.72;;;14.43;44.86
19761;BME280;10039;42.632;23.408;2023-02-26T00:34:27;93809.81;;;14.26;45.58
19761;BME280;10039;42.632;23.408;2023-02-26T00:42:29;93830.91;;;14.47;45.42
19761;BME280;10039;42.632;23.408;2023-02-26T00:44:55;93823.50;;;14.42;45.39
19761;BME280;10039;42.632;23.408;2023-02-26T00:47:30;93822.59;;;14.45;45.55
19761;BME280;10039;42.632;23.408;2023-02-26T00:55:23;93795.34;;;14.23;45.33
19761;BME280;10039;42.632;23.408;2023-02-26T00:57:49;93796.53;;;14.22;44.97
19761;BME280;10039;42.632;23.408;2023-02-26T01:00:15;93794.06;;;14.19;45.30
19761;BME280;10039;42.632;23.408;2023-02-26T01:02:40;93805.72;;;14.16;45.61
19761;BME280;10039;42.632;23.408;2023-02-26T01:05:08;93779.63;;;14.16;45.50
19761;BME280;10039;42.632;23.408;2023-02-26T01:08:08;93788.41;;;14.17;45.08
19761;BME280;10039;42.632;23.408;2023-02-26T01:10:30;93784.25;;;14.16;44.55
19761;BME280;10039;42.632;23.408;2023-02-26T01:12:56;93777.47;;;14.20;44.75
19761;BME280;10039;42.632;23.408;2023-02-26T01:15:23;93789.63;;;14.30;44.55
19761;BME280;10039;42.632;23.408;2023-02-26T01:20:25;93770.75;;;14.25;44.10
19761;BME280;10039;42.632;23.408;2023-02-26T01:23:13;93722.88;;;13.94;43.79
19761;BME280;10039;42.632;23.408;2023-02-26T01:28:30;93761.66;;;14.22;44.13
19761;BME280;10039;42.632;23.408;2023-02-26T01:30:58;93745.19;;;14.29;43.63
19761;BME280;10039;42.632;23.408;2023-02-26T01:33:30;93758.59;;;14.29;43.88
19761;BME280;10039;42.632;23.408;2023-02-26T01:36:02;93706.69;;;14.03;43.45
19761;BME280;10039;42.632;23.408;2023-02-26T01:38:50;93729.28;;;14.26;43.82
19761;BME280;10039;42.632;23.408;2023-02-26T01:41:35;93745.19;;;14.29;43.41
19761;BME280;10039;42.632;23.408;2023-02-26T01:46:45;93742.69;;;14.40;42.99
19761;BME280;10039;42.632;23.408;2023-02-26T01:49:18;93723.00;;;14.14;44.04
19761;BME280;10039;42.632;23.408;2023-02-26T01:54:10;93709.19;;;14.21;43.59
19761;BME280;10039;42.632;23.408;2023-02-26T01:56:36;93712.34;;;14.20;43.00
19761;BME280;10039;42.632;23.408;2023-02-26T01:59:03;93700.50;;;14.26;42.31
19761;BME280;10039;42.632;23.408;2023-02-26T02:01:34;93708.16;;;14.48;41.31
19761;BME280;10039;42.632;23.408;2023-02-26T02:04:01;93720.66;;;14.51;41.48
19761;BME280;10039;42.632;23.408;2023-02-26T02:06:28;93711.47;;;14.57;41.97
19761;BME280;10039;42.632;23.408;2023-02-26T02:08:54;93721.66;;;14.53;42.16
19761;BME280;10039;42.632;23.408;2023-02-26T02:11:20;93702.56;;;14.51;41.79
19761;BME280;10039;42.632;23.408;2023-02-26T02:22:39;93696.50;;;14.07;42.86
19761;BME280;10039;42.632;23.408;2023-02-26T02:33:21;93692.63;;;14.37;42.06
19761;BME280;10039;42.632;23.408;2023-02-26T02:35:57;93712.72;;;14.27;42.17
19761;BME280;10039;42.632;23.408;2023-02-26T02:38:44;93722.97;;;14.43;41.01
19761;BME280;10039;42.632;23.408;2023-02-26T02:41:18;93696.41;;;14.45;40.77
19761;BME280;10039;42.632;23.408;2023-02-26T02:43:46;93708.50;;;14.55;40.36
19761;BME280;10039;42.632;23.408;2023-02-26T02:46:26;93714.97;;;14.63;40.38
19761;BME280;10039;42.632;23.408;2023-02-26T02:49:01;93742.94;;;14.71;39.93
19761;BME280;10039;42.632;23.408;2023-02-26T02:51:31;93732.84;;;14.66;40.36
19761;BME280;10039;42.632;23.408;2023-02-26T02:54:41;93701.88;;;14.36;39.50
19761;BME280;10039;42.632;23.408;2023-02-26T02:57:07;93705.66;;;14.44;39.32
19761;BME280;10039;42.632;23.408;2023-02-26T02:59:43;93716.56;;;14.55;39.47
19761;BME280;10039;42.632;23.408;2023-02-26T03:02:26;93735.06;;;14.53;39.79
19761;BME280;10039;42.632;23.408;2023-02-26T03:04:52;93719.38;;;14.46;40.40
19761;BME280;10039;42.632;23.408;2023-02-26T03:07:18;93693.81;;;14.07;39.69
19761;BME280;10039;42.632;23.408;2023-02-26T03:09:44;93715.66;;;14.29;40.23
19761;BME280;10039;42.632;23.408;2023-02-26T03:12:10;93707.63;;;14.15;38.79
19761;BME280;10039;42.632;23.408;2023-02-26T03:14:36;93708.63;;;14.46;39.04
19761;BME280;10039;42.632;23.408;2023-02-26T03:20:20;93718.31;;;14.58;38.69
19761;BME280;10039;42.632;23.408;2023-02-26T03:25:15;93719.13;;;14.64;38.58
19761;BME280;10039;42.632;23.408;2023-02-26T03:27:47;93713.69;;;14.58;39.10
19761;BME280;10039;42.632;23.408;2023-02-26T03:33:04;93720.06;;;14.61;38.60
19761;BME280;10039;42.632;23.408;2023-02-26T03:38:57;93683.72;;;14.46;38.85
19761;BME280;10039;42.632;23.408;2023-02-26T03:41:34;93698.44;;;14.36;39.58
19761;BME280;10039;42.632;23.408;2023-02-26T03:44:08;93707.44;;;14.33;39.95
19761;BME280;10039;42.632;23.408;2023-02-26T03:46:43;93663.97;;;14.00;39.95
19761;BME280;10039;42.632;23.408;2023-02-26T03:49:16;93689.66;;;14.35;38.58
19761;BME280;10039;42.632;23.408;2023-02-26T03:51:45;93700.56;;;14.46;39.18
19761;BME280;10039;42.632;23.408;2023-02-26T03:56:47;93704.59;;;14.56;38.53
19761;BME280;10039;42.632;23.408;2023-02-26T03:59:14;93686.09;;;14.58;38.59
19761;BME280;10039;42.632;23.408;2023-02-26T04:02:09;93695.34;;;14.57;38.72
19761;BME280;10039;42.632;23.408;2023-02-26T04:07:08;93670.19;;;14.55;37.98
19761;BME280;10039;42.632;23.408;2023-02-26T04:09:34;93649.44;;;14.55;38.71
19761;BME280;10039;42.632;23.408;2023-02-26T04:12:00;93688.13;;;14.63;38.52
19761;BME280;10039;42.632;23.408;2023-02-26T04:14:25;93689.59;;;14.64;38.39
19761;BME280;10039;42.632;23.408;2023-02-26T04:16:51;93688.47;;;14.70;38.29
19761;BME280;10039;42.632;23.408;2023-02-26T04:19:16;93671.63;;;14.70;37.74
19761;BME280;10039;42.632;23.408;2023-02-26T04:21:42;93659.94;;;14.73;38.27
19761;BME280;10039;42.632;23.408;2023-02-26T04:24:07;93670.34;;;14.65;38.45
19761;BME280;10039;42.632;23.408;2023-02-26T04:26:33;93670.78;;;14.64;38.32
19761;BME280;10039;42.632;23.408;2023-02-26T04:28:58;93651.84;;;14.53;38.34
19761;BME280;10039;42.632;23.408;2023-02-26T04:31:23;93647.16;;;14.48;38.72
19761;BME280;10039;42.632;23.408;2023-02-26T04:33:49;93642.66;;;14.59;38.57
19761;BME280;10039;42.632;23.408;2023-02-26T04:36:14;93644.75;;;14.70;38.29
19761;BME280;10039;42.632;23.408;2023-02-26T04:38:40;93632.75;;;14.65;38.65
19761;BME280;10039;42.632;23.408;2023-02-26T04:41:06;93631.88;;;14.74;38.89
19761;BME280;10039;42.632;23.408;2023-02-26T04:43:32;93639.84;;;14.68;39.20
19761;BME280;10039;42.632;23.408;2023-02-26T04:45:58;93658.31;;;14.61;39.40
19761;BME280;10039;42.632;23.408;2023-02-26T04:48:23;93649.13;;;14.33;38.84
19761;BME280;10039;42.632;23.408;2023-02-26T04:50:49;93661.16;;;14.23;39.27
19761;BME280;10039;42.632;23.408;2023-02-26T04:53:14;93604.97;;;13.85;39.82
19761;BME280;10039;42.632;23.408;2023-02-26T04:55:39;93627.69;;;14.04;40.08
19761;BME280;10039;42.632;23.408;2023-02-26T04:58:06;93643.31;;;14.06;39.77
19761;BME280;10039;42.632;23.408;2023-02-26T05:00:32;93607.25;;;13.78;39.96
19761;BME280;10039;42.632;23.408;2023-02-26T05:02:57;93629.19;;;13.91;40.27
19761;BME280;10039;42.632;23.408;2023-02-26T05:05:23;93651.00;;;13.98;39.69
19761;BME280;10039;42.632;23.408;2023-02-26T05:07:48;93623.44;;;13.98;39.59
19761;BME280;10039;42.632;23.408;2023-02-26T05:10:14;93619.91;;;14.06;39.03
19761;BME280;10039;42.632;23.408;2023-02-26T05:12:39;93626.38;;;14.29;38.14
19761;BME280;10039;42.632;23.408;2023-02-26T05:15:05;93620.84;;;14.03;39.10
19761;BME280;10039;42.632;23.408;2023-02-26T05:17:31;93629.16;;;14.05;38.58
19761;BME280;10039;42.632;23.408;2023-02-26T05:19:56;93637.22;;;14.05;38.95
19761;BME280;10039;42.632;23.408;2023-02-26T05:22:22;93629.16;;;14.20;38.83
19761;BME280;10039;42.632;23.408;2023-02-26T05:24:48;93604.00;;;14.17;39.21
19761;BME280;10039;42.632;23.408;2023-02-26T05:27:13;93599.00;;;14.10;39.22
19761;BME280;10039;42.632;23.408;2023-02-26T05:29:39;93630.44;;;14.10;38.44
19761;BME280;10039;42.632;23.408;2023-02-26T05:32:06;93632.97;;;13.99;39.27
19761;BME280;10039;42.632;23.408;2023-02-26T05:34:32;93614.53;;;14.06;38.65
19761;BME280;10039;42.632;23.408;2023-02-26T05:36:57;93638.03;;;14.11;38.56
19761;BME280;10039;42.632;23.408;2023-02-26T05:39:23;93596.41;;;14.01;38.46
19761;BME280;10039;42.632;23.408;2023-02-26T05:41:48;93626.00;;;14.21;39.02
19761;BME280;10039;42.632;23.408;2023-02-26T05:44:16;93627.25;;;14.40;38.03
19761;BME280;10039;42.632;23.408;2023-02-26T05:46:41;93609.34;;;14.32;38.13
19761;BME280;10039;42.632;23.408;2023-02-26T05:49:07;93612.97;;;14.49;37.59
19761;BME280;10039;42.632;23.408;2023-02-26T05:51:32;93603.25;;;14.51;37.39
19761;BME280;10039;42.632;23.408;2023-02-26T05:53:57;93596.66;;;14.52;37.68
19761;BME280;10039;42.632;23.408;2023-02-26T05:56:23;93611.84;;;14.55;37.41
19761;BME280;10039;42.632;23.408;2023-02-26T05:58:48;93628.75;;;14.61;37.48
19761;BME280;10039;42.632;23.408;2023-02-26T06:01:13;93628.16;;;14.71;37.24
19761;BME280;10039;42.632;23.408;2023-02-26T06:03:39;93635.84;;;14.78;37.00
19761;BME280;10039;42.632;23.408;2023-02-26T06:06:12;93615.59;;;14.83;36.98
19761;BME280;10039;42.632;23.408;2023-02-26T06:08:38;93591.25;;;14.86;36.40
19761;BME280;10039;42.632;23.408;2023-02-26T06:11:04;93631.34;;;14.90;36.21
19761;BME280;10039;42.632;23.408;2023-02-26T06:13:30;93635.09;;;14.98;36.21
19761;BME280;10039;42.632;23.408;2023-02-26T06:15:55;93628.13;;;15.06;35.85
19761;BME280;10039;42.632;23.408;2023-02-26T06:18:21;93625.03;;;14.93;36.56
19761;BME280;10039;42.632;23.408;2023-02-26T06:20:46;93645.97;;;14.89;36.75
19761;BME280;10039;42.632;23.408;2023-02-26T06:23:12;93635.09;;;14.98;36.53
19761;BME280;10039;42.632;23.408;2023-02-26T06:25:39;93631.34;;;15.10;36.49
19761;BME280;10039;42.632;23.408;2023-02-26T06:28:05;93662.16;;;15.14;36.79
19761;BME280;10039;42.632;23.408;2023-02-26T06:30:30;93646.75;;;15.15;36.71
19761;BME280;10039;42.632;23.408;2023-02-26T06:32:56;93651.00;;;15.21;36.30
19761;BME280;10039;42.632;23.408;2023-02-26T06:35:21;93623.38;;;15.21;36.13
19761;BME280;10039;42.632;23.408;2023-02-26T06:37:47;93626.50;;;15.34;35.63
19761;BME280;10039;42.632;23.408;2023-02-26T06:40:12;93627.75;;;15.38;35.16
19761;BME280;10039;42.632;23.408;2023-02-26T06:42:38;93634.31;;;15.57;35.56
19761;BME280;10039;42.632;23.408;2023-02-26T06:45:03;93597.19;;;15.36;35.42
19761;BME280;10039;42.632;23.408;2023-02-26T06:47:29;93617.44;;;15.57;35.11
19761;BME280;10039;42.632;23.408;2023-02-26T06:49:55;93641.25;;;15.69;34.78
19761;BME280;10039;42.632;23.408;2023-02-26T06:52:20;93634.97;;;15.77;34.76
19761;BME280;10039;42.632;23.408;2023-02-26T06:54:46;93637.22;;;15.79;34.42
19761;BME280;10039;42.632;23.408;2023-02-26T06:57:12;93640.19;;;15.86;34.48
19761;BME280;10039;42.632;23.408;2023-02-26T06:59:37;93612.00;;;15.76;34.21
19761;BME280;10039;42.632;23.408;2023-02-26T07:02:03;93591.56;;;15.59;34.49
19761;BME280;10039;42.632;23.408;2023-02-26T07:04:28;93625.34;;;15.91;34.14
19761;BME280;10039;42.632;23.408;2023-02-26T07:06:53;93612.69;;;16.02;34.32
19761;BME280;10039;42.632;23.408;2023-02-26T07:09:19;93572.00;;;15.95;34.00
19761;BME280;10039;42.632;23.408;2023-02-26T07:11:44;93606.84;;;16.09;34.27
19761;BME280;10039;42.632;23.408;2023-02-26T07:14:10;93594.00;;;16.24;34.26
19761;BME280;10039;42.632;23.408;2023-02-26T07:16:35;93533.19;;;16.01;33.70
19761;BME280;10039;42.632;23.408;2023-02-26T07:19:04;93620.56;;;16.37;33.31
19761;BME280;10039;42.632;23.408;2023-02-26T07:21:29;93583.53;;;16.32;33.73
19761;BME280;10039;42.632;23.408;2023-02-26T07:23:54;93587.59;;;16.53;33.50
19761;BME280;10039;42.632;23.408;2023-02-26T07:26:20;93607.53;;;16.77;32.67
19761;BME280;10039;42.632;23.408;2023-02-26T07:28:45;93605.16;;;16.90;32.89
19761;BME280;10039;42.632;23.408;2023-02-26T07:31:11;93638.72;;;16.84;32.36
19761;BME280;10039;42.632;23.408;2023-02-26T07:33:36;93583.59;;;16.90;32.21
19761;BME280;10039;42.632;23.408;2023-02-26T07:36:04;93585.34;;;16.93;32.13
19761;BME280;10039;42.632;23.408;2023-02-26T07:38:29;93599.03;;;16.89;31.90
19761;BME280;10039;42.632;23.408;2023-02-26T07:40:55;93647.47;;;17.26;31.90
19761;BME280;10039;42.632;23.408;2023-02-26T07:43:22;93603.09;;;17.27;31.42
19761;BME280;10039;42.632;23.408;2023-02-26T07:45:51;93633.81;;;17.40;31.06
19761;BME280;10039;42.632;23.408;2023-02-26T07:48:17;93619.66;;;17.62;32.04
19761;BME280;10039;42.632;23.408;2023-02-26T07:50:43;93600.75;;;17.62;31.77
19761;BME280;10039;42.632;23.408;2023-02-26T07:53:09;93590.19;;;17.53;31.20
19761;BME280;10039;42.632;23.408;2023-02-26T07:55:34;93614.50;;;17.64;30.73
19761;BME280;10039;42.632;23.408;2023-02-26T07:58:00;93594.13;;;17.74;30.42
19761;BME280;10039;42.632;23.408;2023-02-26T08:00:25;93646.94;;;18.02;30.21
19761;BME280;10039;42.632;23.408;2023-02-26T08:02:50;93591.44;;;17.90;29.85
19761;BME280;10039;42.632;23.408;2023-02-26T08:05:16;93594.63;;;17.67;30.10
19761;BME280;10039;42.632;23.408;2023-02-26T08:07:41;93637.06;;;17.61;30.35
19761;BME280;10039;42.632;23.408;2023-02-26T08:10:08;93612.06;;;17.82;30.38
19761;BME280;10039;42.632;23.408;2023-02-26T08:12:33;93611.31;;;17.82;30.38
19761;BME280;10039;42.632;23.408;2023-02-26T08:15:00;93601.03;;;17.97;30.75
19761;BME280;10039;42.632;23.408;2023-02-26T08:17:26;93606.91;;;18.06;29.97
19761;BME280;10039;42.632;23.408;2023-02-26T08:19:51;93605.94;;;18.09;30.33
19761;BME280;10039;42.632;23.408;2023-02-26T08:22:18;93599.81;;;18.25;30.00
19761;BME280;10039;42.632;23.408;2023-02-26T08:24:44;93601.03;;;17.97;29.82
19761;BME280;10039;42.632;23.408;2023-02-26T08:27:09;93601.75;;;18.08;29.59
19761;BME280;10039;42.632;23.408;2023-02-26T08:29:34;93622.88;;;18.15;30.34
19761;BME280;10039;42.632;23.408;2023-02-26T08:32:00;93614.78;;;17.99;29.86
19761;BME280;10039;42.632;23.408;2023-02-26T08:34:25;93584.81;;;17.91;29.35
19761;BME280;10039;42.632;23.408;2023-02-26T08:36:51;93646.19;;;17.91;29.50
19761;BME280;10039;42.632;23.408;2023-02-26T08:39:16;93644.19;;;17.75;29.98
19761;BME280;10039;42.632;23.408;2023-02-26T08:41:41;93616.25;;;17.89;29.80
19761;BME280;10039;42.632;23.408;2023-02-26T08:44:07;93634.66;;;18.12;29.59
19761;BME280;10039;42.632;23.408;2023-02-26T08:46:33;93573.53;;;17.87;29.13
19761;BME280;10039;42.632;23.408;2023-02-26T08:48:58;93630.22;;;18.03;29.66
19761;BME280;10039;42.632;23.408;2023-02-26T08:51:24;93629.75;;;18.21;28.97
19761;BME280;10039;42.632;23.408;2023-02-26T08:53:50;93661.19;;;18.30;29.31
19761;BME280;10039;42.632;23.408;2023-02-26T08:56:16;93625.13;;;18.27;28.93
19761;BME280;10039;42.632;23.408;2023-02-26T08:58:42;93630.00;;;18.34;29.17
19761;BME280;10039;42.632;23.408;2023-02-26T09:01:07;93654.56;;;18.36;28.80
19761;BME280;10039;42.632;23.408;2023-02-26T09:03:33;93646.69;;;18.55;29.51
19761;BME280;10039;42.632;23.408;2023-02-26T09:05:59;93640.53;;;18.60;28.42
19761;BME280;10039;42.632;23.408;2023-02-26T09:08:24;93637.31;;;18.72;28.67
19761;BME280;10039;42.632;23.408;2023-02-26T09:10:50;93590.44;;;18.53;27.98
19761;BME280;10039;42.632;23.408;2023-02-26T09:13:15;93634.34;;;18.81;28.49
19761;BME280;10039;42.632;23.408;2023-02-26T09:15:41;93601.44;;;18.77;28.36
19761;BME280;10039;42.632;23.408;2023-02-26T09:18:06;93612.69;;;18.92;28.15
19761;BME280;10039;42.632;23.408;2023-02-26T09:20:35;93625.91;;;19.23;28.03
19761;BME280;10039;42.632;23.408;2023-02-26T09:23:01;93579.47;;;18.97;27.85
19761;BME280;10039;42.632;23.408;2023-02-26T09:25:27;93600.91;;;18.95;28.56
19761;BME280;10039;42.632;23.408;2023-02-26T09:27:52;93603.47;;;19.28;28.33
19761;BME280;10039;42.632;23.408;2023-02-26T09:30:18;93611.50;;;19.50;28.19
19761;BME280;10039;42.632;23.408;2023-02-26T09:32:43;93647.84;;;19.60;29.04
19761;BME280;10039;42.632;23.408;2023-02-26T09:35:09;93616.34;;;19.62;27.88
19761;BME280;10039;42.632;23.408;2023-02-26T09:37:35;93606.06;;;19.50;28.80
19761;BME280;10039;42.632;23.408;2023-02-26T09:40:01;93615.91;;;19.53;27.76
19761;BME280;10039;42.632;23.408;2023-02-26T09:42:45;93649.72;;;19.76;27.52
19761;BME280;10039;42.632;23.408;2023-02-26T09:45:32;93622.03;;;19.59;27.51
19761;BME280;10039;42.632;23.408;2023-02-26T09:48:01;93646.84;;;19.63;27.50
19761;BME280;10039;42.632;23.408;2023-02-26T09:50:43;93631.41;;;19.52;26.54
19761;BME280;10039;42.632;23.408;2023-02-26T09:53:15;93627.13;;;19.68;26.96
19761;BME280;10039;42.632;23.408;2023-02-26T09:55:48;93625.31;;;19.87;26.81
19761;BME280;10039;42.632;23.408;2023-02-26T09:58:20;93628.16;;;20.05;27.12
19761;BME280;10039;42.632;23.408;2023-02-26T10:03:38;93625.88;;;20.15;26.65
19761;BME280;10039;42.632;23.408;2023-02-26T10:12:01;93618.88;;;20.25;26.78
19761;BME280;10039;42.632;23.408;2023-02-26T10:14:43;93584.56;;;19.98;26.18
19761;BME280;10039;42.632;23.408;2023-02-26T10:17:34;93614.75;;;19.78;26.28
19761;BME280;10039;42.632;23.408;2023-02-26T10:20:11;93589.63;;;19.83;27.02
19761;BME280;10039;42.632;23.408;2023-02-26T10:22:47;93603.41;;;19.85;26.48
19761;BME280;10039;42.632;23.408;2023-02-26T10:25:26;93593.47;;;19.58;26.72
19761;BME280;10039;42.632;23.408;2023-02-26T10:30:45;93599.25;;;19.78;27.34
19761;BME280;10039;42.632;23.408;2023-02-26T10:36:27;93595.16;;;19.66;27.34
19761;BME280;10039;42.632;23.408;2023-02-26T10:39:02;93570.84;;;19.55;27.51
19761;BME280;10039;42.632;23.408;2023-02-26T10:41:30;93591.53;;;19.53;27.83
19761;BME280;10039;42.632;23.408;2023-02-26T10:46:55;93572.94;;;19.33;28.14
19761;BME280;10039;42.632;23.408;2023-02-26T10:49:34;93550.38;;;19.25;28.12
19761;BME280;10039;42.632;23.408;2023-02-26T10:52:12;93544.16;;;19.30;28.25
19761;BME280;10039;42.632;23.408;2023-02-26T10:55:29;93578.88;;;19.31;28.23
19761;BME280;10039;42.632;23.408;2023-02-26T10:57:30;93577.59;;;19.38;28.86
19761;BME280;10039;42.632;23.408;2023-02-26T10:59:58;93579.47;;;19.54;28.16
19761;BME280;10039;42.632;23.408;2023-02-26T11:02:39;93578.00;;;19.53;28.07
19761;BME280;10039;42.632;23.408;2023-02-26T11:05:16;93583.91;;;19.57;28.51
19761;BME280;10039;42.632;23.408;2023-02-26T11:07:42;93538.34;;;19.20;28.38
19761;BME280;10039;42.632;23.408;2023-02-26T11:10:17;93558.94;;;19.29;28.32
19761;BME280;10039;42.632;23.408;2023-02-26T11:12:43;93569.56;;;19.27;28.71
19761;BME280;10039;42.632;23.408;2023-02-26T11:15:14;93564.63;;;19.25;28.70
19761;BME280;10039;42.632;23.408;2023-02-26T11:17:40;93574.44;;;19.28;28.71
19761;BME280;10039;42.632;23.408;2023-02-26T11:23:01;93573.44;;;19.31;28.58
19761;BME280;10039;42.632;23.408;2023-02-26T11:25:29;93518.50;;;18.96;29.18
19761;BME280;10039;42.632;23.408;2023-02-26T11:28:05;93547.72;;;19.14;28.47
19761;BME280;10039;42.632;23.408;2023-02-26T11:30:36;93558.28;;;19.12;28.83
19761;BME280;10039;42.632;23.408;2023-02-26T11:33:26;93574.53;;;19.07;28.96
19761;BME280;10039;42.632;23.408;2023-02-26T11:35:58;93576.72;;;19.08;28.89
19761;BME280;10039;42.632;23.408;2023-02-26T11:38:25;93556.59;;;18.98;28.93
19761;BME280;10039;42.632;23.408;2023-02-26T11:40:54;93586.59;;;19.00;29.08
19761;BME280;10039;42.632;23.408;2023-02-26T11:43:22;93560.59;;;18.86;29.76
19761;BME280;10039;42.632;23.408;2023-02-26T11:45:59;93572.78;;;19.20;29.21
19761;BME280;10039;42.632;23.408;2023-02-26T11:48:32;93566.66;;;19.14;29.88
19761;BME280;10039;42.632;23.408;2023-02-26T11:51:02;93596.13;;;19.23;28.88
19761;BME280;10039;42.632;23.408;2023-02-26T11:53:33;93597.69;;;18.97;28.76
19761;BME280;10039;42.632;23.408;2023-02-26T11:56:03;93578.13;;;18.69;29.48
19761;BME280;10039;42.632;23.408;2023-02-26T11:58:35;93645.09;;;19.09;29.21
19761;BME280;10039;42.632;23.408;2023-02-26T12:01:03;93645.09;;;19.09;29.38
19761;BME280;10039;42.632;23.408;2023-02-26T12:03:33;93642.91;;;18.96;29.21
19761;BME280;10039;42.632;23.408;2023-02-26T12:06:00;93635.00;;;19.09;29.54
19761;BME280;10039;42.632;23.408;2023-02-26T12:08:37;93635.56;;;18.91;29.55
19761;BME280;10039;42.632;23.408;2023-02-26T12:11:34;93637.72;;;19.09;29.84
19761;BME280;10039;42.632;23.408;2023-02-26T12:33:22;93644.88;;;19.01;29.75
19761;BME280;10039;42.632;23.408;2023-02-26T12:43:54;93661.25;;;19.36;29.74
19761;BME280;10039;42.632;23.408;2023-02-26T12:52:34;93678.22;;;19.31;31.19
19761;BME280;10039;42.632;23.408;2023-02-26T12:55:29;93684.66;;;19.22;31.17
19761;BME280;10039;42.632;23.408;2023-02-26T13:01:06;93654.22;;;19.06;31.49
19761;BME280;10039;42.632;23.408;2023-02-26T13:11:49;93672.59;;;19.23;31.47
19761;BME280;10039;42.632;23.408;2023-02-26T13:17:42;93680.00;;;19.12;31.53
19761;BME280;10039;42.632;23.408;2023-02-26T13:20:16;93660.34;;;19.17;30.91
19761;BME280;10039;42.632;23.408;2023-02-26T13:23:14;93643.13;;;19.15;30.77
19761;BME280;10039;42.632;23.408;2023-02-26T13:25:55;93640.94;;;19.08;31.05
19761;BME280;10039;42.632;23.408;2023-02-26T13:28:34;93661.06;;;19.12;32.06
19761;BME280;10039;42.632;23.408;2023-02-26T13:31:15;93659.84;;;19.18;32.49
19761;BME280;10039;42.632;23.408;2023-02-26T13:33:43;93645.81;;;19.20;31.27
19761;BME280;10039;42.632;23.408;2023-02-26T13:36:10;93648.72;;;19.33;31.57
19761;BME280;10039;42.632;23.408;2023-02-26T13:38:59;93646.47;;;19.42;31.22
19761;BME280;10039;42.632;23.408;2023-02-26T13:44:41;93610.25;;;19.45;31.01
19761;BME280;10039;42.632;23.408;2023-02-26T13:53:02;93651.34;;;19.55;31.15
19761;BME280;10039;42.632;23.408;2023-02-26T13:55:47;93663.16;;;19.52;31.17
19761;BME280;10039;42.632;23.408;2023-02-26T13:58:33;93625.97;;;19.58;30.50
19761;BME280;10039;42.632;23.408;2023-02-26T14:01:33;93636.75;;;19.63;30.16
19761;BME280;10039;42.632;23.408;2023-02-26T14:04:22;93638.56;;;19.50;30.08
19761;BME280;10039;42.632;23.408;2023-02-26T14:06:51;93634.19;;;19.36;30.79
19761;BME280;10039;42.632;23.408;2023-02-26T14:17:48;93655.41;;;19.10;30.85
19761;BME280;10039;42.632;23.408;2023-02-26T14:20:29;93646.88;;;18.95;30.73
19761;BME280;10039;42.632;23.408;2023-02-26T14:23:12;93657.88;;;19.14;30.83
19761;BME280;10039;42.632;23.408;2023-02-26T14:25:50;93655.91;;;19.25;31.75
19761;BME280;10039;42.632;23.408;2023-02-26T14:33:42;93676.69;;;19.46;31.16
19761;BME280;10039;42.632;23.408;2023-02-26T14:36:20;93683.88;;;19.33;29.92
19761;BME280;10039;42.632;23.408;2023-02-26T14:38:49;93676.78;;;19.24;31.00
19761;BME280;10039;42.632;23.408;2023-02-26T14:44:02;93687.44;;;18.95;30.69
19761;BME280;10039;42.632;23.408;2023-02-26T14:46:32;93684.72;;;18.95;30.85
19761;BME280;10039;42.632;23.408;2023-02-26T14:48:59;93685.47;;;18.90;32.89
19761;BME280;10039;42.632;23.408;2023-02-26T15:00:52;93702.69;;;18.21;33.25
19761;BME280;10039;42.632;23.408;2023-02-26T15:09:13;93700.19;;;18.01;34.13
19761;BME280;10039;42.632;23.408;2023-02-26T15:14:35;93700.47;;;18.09;33.72
19761;BME280;10039;42.632;23.408;2023-02-26T15:20:21;93708.75;;;17.84;34.26
19761;BME280;10039;42.632;23.408;2023-02-26T15:25:29;93732.03;;;17.76;34.88
19761;BME280;10039;42.632;23.408;2023-02-26T15:27:56;93738.41;;;17.73;35.72
19761;BME280;10039;42.632;23.408;2023-02-26T15:30:22;93723.38;;;17.55;36.42
19761;BME280;10039;42.632;23.408;2023-02-26T15:32:48;93741.28;;;17.53;37.19
19761;BME280;10039;42.632;23.408;2023-02-26T15:35:16;93749.69;;;17.66;38.74
19761;BME280;10039;42.632;23.408;2023-02-26T15:37:46;93751.00;;;17.34;37.00
19761;BME280;10039;42.632;23.408;2023-02-26T15:40:13;93764.09;;;17.57;37.57
19761;BME280;10039;42.632;23.408;2023-02-26T15:42:40;93747.63;;;17.50;38.29
19761;BME280;10039;42.632;23.408;2023-02-26T15:45:30;93787.22;;;17.64;37.50
19761;BME280;10039;42.632;23.408;2023-02-26T15:48:06;93783.25;;;17.59;37.27
19761;BME280;10039;42.632;23.408;2023-02-26T15:50:39;93764.97;;;17.38;37.78
19761;BME280;10039;42.632;23.408;2023-02-26T15:53:07;93767.75;;;17.49;37.78
19761;BME280;10039;42.632;23.408;2023-02-26T15:55:47;93764.59;;;17.14;38.23
19761;BME280;10039;42.632;23.408;2023-02-26T15:58:20;93782.75;;;17.19;38.73